Latest Weather Observations for Rottnest Island

IDW60901

Issued at 10:01 am WST Tuesday 31 March 2015 (issued every 10 minutes, with the page automatically refreshed every 10 minutes)

About weather observations | Map of Perth area stations | Latest observations for Perth area | Other Formats
Station Details ID: 009193 Name: ROTTNEST ISLAND Lat: -32.01 Lon: 115.50 Height: 43.1 m
Data from the previous 72 hours. | See also: Recent months at Rottnest Island
Date/Time
WST
Tmp

°C
App
Tmp
°C
Dew
Point
°C
Rel
Hum
%
Delta-T

°C
Wind Press
QNH
hPa
Press
MSL
hPa
Rain
since
9 am
mm
Dir
 
Spd
km/h
Gust
km/h
Spd
kts
Gust
kts
31/10:00am 20.4 18.2 14.5 69 3.4 SE 19 22 10 12 1018.2 1018.0 0.0
31/09:30am 20.4 18.4 15.0 71 3.2 SSE 19 24 10 13 1018.2 1018.0 0.0
31/09:00am 20.8 18.9 15.1 70 3.4 SE 19 24 10 13 1018.0 1017.8 0.0
31/08:30am 20.2 18.3 15.2 73 3.0 SSE 19 24 10 13 1017.8 1017.6 0.0
31/08:00am 20.1 17.7 15.3 74 2.8 SSE 22 26 12 14 1017.5 1017.3 0.0
31/07:30am 19.8 17.5 15.7 77 2.4 SSE 22 28 12 15 1017.0 1016.8 0.0
31/07:00am 19.8 16.9 15.2 75 2.7 S 24 32 13 17 1016.6 1016.4 0.0
31/06:30am 19.8 16.8 14.8 73 2.9 S 24 30 13 16 1016.3 1016.1 0.0
31/06:00am 19.8 16.9 15.0 74 2.8 S 24 30 13 16 1016.3 1016.1 0.0
31/05:30am 19.6 17.5 15.3 76 2.5 SSE 20 26 11 14 1016.3 1016.1 0.0
31/05:00am 19.6 17.2 15.3 76 2.5 SSE 22 28 12 15 1016.0 1015.8 0.0
31/04:30am 20.0 17.9 14.8 72 3.0 S 19 24 10 13 1016.0 1015.8 0.0
31/04:00am 19.6 17.6 15.0 75 2.7 S 19 22 10 12 1015.8 1015.6 0.0
31/03:30am 19.5 17.2 14.7 74 2.8 SSW 20 24 11 13 1015.9 1015.7 0.0
31/03:00am 19.5 17.5 15.0 75 2.6 S 19 24 10 13 1015.6 1015.4 0.0
31/02:30am 19.7 17.7 14.9 74 2.8 SSW 19 24 10 13 1016.0 1015.8 0.0
31/02:00am 19.8 17.6 14.8 73 2.9 SSW 20 26 11 14 1016.1 1015.9 0.0
31/01:30am 19.9 18.0 15.3 75 2.7 SSW 19 24 10 13 1016.2 1016.0 0.0
31/01:00am 19.9 17.6 14.7 72 3.0 SSW 20 24 11 13 1016.4 1016.2 0.0
31/12:30am 19.9 17.8 15.3 75 2.7 SSW 20 24 11 13 1016.4 1016.2 0.0
31/12:00am 19.9 17.5 15.5 76 2.6 SSW 22 28 12 15 1016.4 1016.2 0.0
 
Date/Time
WST
Tmp

°C
App
Tmp
°C
Dew
Point
°C
Rel
Hum
%
Delta-T

°C
Wind Press
QNH
hPa
Press
MSL
hPa
Rain
since
9 am
mm
Dir
 
Spd
km/h
Gust
km/h
Spd
kts
Gust
kts
30/11:30pm 19.6 18.6 15.5 77 2.4 SSW 15 19 8 10 1017.0 1016.8 0.0
30/11:00pm 19.9 18.6 15.7 77 2.5 SSW 17 19 9 10 1017.3 1017.1 0.0
30/10:30pm 19.9 19.4 16.0 78 2.3 S 13 17 7 9 1017.6 1017.4 0.0
30/10:00pm 20.1 19.1 15.5 75 2.7 S 15 17 8 9 1017.9 1017.7 0.0
30/09:30pm 20.1 19.5 15.7 76 2.6 SSW 13 15 7 8 1018.2 1018.0 0.0
30/09:00pm 20.2 19.4 16.0 77 2.5 SSW 15 19 8 10 1017.9 1017.7 0.0
30/08:30pm 20.4 19.2 16.2 77 2.5 SSW 17 19 9 10 1017.9 1017.7 0.0
30/08:00pm 20.4 19.3 16.4 78 2.4 SSW 17 20 9 11 1017.9 1017.7 0.0
30/07:30pm 20.6 19.2 16.6 78 2.4 SSW 19 24 10 13 1017.5 1017.3 0.0
30/07:00pm 20.7 19.3 16.9 79 2.3 SSW 20 24 11 13 1016.9 1016.7 0.0
30/06:30pm 20.8 18.7 17.2 80 2.2 S 24 30 13 16 1016.3 1016.1 0.0
30/06:00pm 20.9 18.3 16.9 78 2.4 S 26 32 14 17 1016.2 1016.0 0.0
30/05:30pm 21.1 18.5 16.9 77 2.6 S 26 32 14 17 1015.9 1015.7 0.0
30/05:00pm 21.2 18.6 16.8 76 2.7 S 26 32 14 17 1016.0 1015.8 0.0
30/04:30pm 21.4 18.6 17.4 78 2.5 SSW 28 33 15 18 1015.8 1015.6 0.0
30/04:00pm 21.6 20.4 17.6 78 2.5 SSW 20 24 11 13 1015.9 1015.7 0.0
30/03:30pm 21.7 19.4 17.5 77 2.6 SSW 26 32 14 17 1015.5 1015.3 0.0
30/03:00pm 21.9 20.5 17.1 74 2.9 S 20 26 11 14 1015.8 1015.6 0.0
30/02:30pm 22.1 20.0 17.2 74 3.0 S 24 30 13 16 1015.1 1014.9 0.0
30/02:00pm 22.0 19.8 17.8 77 2.6 SSW 26 32 14 17 1015.3 1015.1 0.0
30/01:30pm 22.1 19.8 17.5 75 2.8 SSW 26 32 14 17 1015.1 1014.9 0.0
30/01:00pm 22.7 20.4 17.6 73 3.2 SSW 26 32 14 17 1015.5 1015.3 0.0
30/12:30pm 22.6 20.3 17.7 74 3.0 SSW 26 30 14 16 1015.6 1015.4 0.0
30/12:00pm 22.6 21.0 18.4 77 2.6 S 24 30 13 16 1015.4 1015.2 0.0
30/11:30am 22.3 20.5 17.9 76 2.7 S 24 30 13 16 1015.6 1015.4 0.0
30/11:00am 23.0 21.6 17.9 73 3.2 S 22 26 12 14 1015.9 1015.7 0.0
30/10:30am 22.7 21.1 17.4 72 3.3 S 22 26 12 14 1016.3 1016.1 0.0
30/10:00am 22.5 21.5 17.6 74 3.0 S 19 22 10 12 1016.4 1016.2 0.0
30/09:30am 22.9 21.6 16.7 68 3.8 S 19 22 10 12 1016.6 1016.4 0.0
30/09:00am 22.5 21.0 15.4 64 4.2 S 17 20 9 11 1016.4 1016.2 0.0
30/08:30am 22.1 21.0 15.2 65 4.1 S 15 17 8 9 1016.3 1016.1 0.0
30/08:00am 22.0 21.5 15.8 68 3.7 SSE 13 15 7 8 1016.1 1015.9 0.0
30/07:30am 21.5 19.4 15.3 68 3.7 S 20 22 11 12 1015.8 1015.6 0.0
30/07:00am 20.9 18.7 15.0 69 3.5 SSE 20 24 11 13 1015.6 1015.4 0.0
30/06:30am 20.7 18.1 15.0 70 3.4 SSE 22 26 12 14 1015.5 1015.3 0.0
30/06:00am 20.7 18.0 15.5 72 3.1 S 24 28 13 15 1015.5 1015.3 0.0
30/05:30am 20.7 18.0 15.5 72 3.1 S 24 28 13 15 1015.2 1015.0 0.0
30/05:00am 21.0 18.2 15.3 70 3.4 S 24 28 13 15 1014.9 1014.7 0.0
30/04:30am 21.0 18.1 15.1 69 3.5 SSE 24 28 13 15 1014.8 1014.6 0.0
30/04:00am 20.9 18.1 15.4 71 3.3 S 24 28 13 15 1014.8 1014.6 0.0
30/03:30am 20.8 17.9 15.1 70 3.4 S 24 28 13 15 1014.9 1014.7 0.0
30/03:00am 20.5 17.8 15.5 73 3.0 S 24 28 13 15 1015.2 1015.0 0.0
30/02:30am 21.0 18.6 15.3 70 3.4 S 22 26 12 14 1015.3 1015.1 0.0
30/02:00am 21.0 18.9 15.1 69 3.5 SSE 20 22 11 12 1015.7 1015.5 0.0
30/01:30am 21.1 18.7 14.5 66 3.9 SSE 20 28 11 15 1015.8 1015.6 0.0
30/01:00am 21.2 18.2 14.8 67 3.8 SSE 24 30 13 16 1016.2 1016.0 0.0
30/12:30am 21.1 18.4 14.7 67 3.8 SSE 22 28 12 15 1016.3 1016.1 0.0
30/12:00am 21.1 18.0 14.5 66 3.9 S 24 28 13 15 1016.6 1016.4 0.0
 
Date/Time
WST
Tmp

°C
App
Tmp
°C
Dew
Point
°C
Rel
Hum
%
Delta-T

°C
Wind Press
QNH
hPa
Press
MSL
hPa
Rain
since
9 am
mm
Dir
 
Spd
km/h
Gust
km/h
Spd
kts
Gust
kts
29/11:30pm 21.1 18.4 14.5 66 3.9 S 22 28 12 15 1016.9 1016.7 0.0
29/11:00pm 21.1 18.2 15.2 69 3.5 SSE 24 28 13 15 1017.0 1016.8 0.0
29/10:30pm 21.1 18.0 14.5 66 3.9 SSE 24 30 13 16 1017.2 1017.0 0.0
29/10:00pm 21.2 18.1 15.7 71 3.3 SSE 26 33 14 18 1017.5 1017.3 0.0
29/09:30pm 21.3 17.5 15.8 71 3.3 SSE 30 35 16 19 1017.5 1017.3 0.0
29/09:00pm 21.3 17.1 15.6 70 3.4 SSE 32 37 17 20 1017.3 1017.1 0.0
29/08:30pm 21.1 18.1 16.7 76 2.7 SSE 28 35 15 19 1017.5 1017.3 0.0
29/08:00pm 21.1 17.5 17.3 79 2.3 SSE 32 39 17 21 1017.3 1017.1 0.0
29/07:30pm 21.3 17.5 17.1 77 2.6 S 33 39 18 21 1017.1 1016.9 0.0
29/07:00pm 21.3 17.6 17.5 79 2.3 S 33 39 18 21 1017.0 1016.8 0.0
29/06:30pm 21.4 18.1 18.0 81 2.1 S 32 35 17 19 1016.9 1016.7 0.0
29/06:00pm 21.6 18.5 17.6 78 2.5 S 30 35 16 19 1016.8 1016.6 0.0
29/05:30pm 22.2 19.4 17.3 74 3.0 SSW 28 35 15 19 1016.9 1016.7 0.0
29/05:00pm 22.6 19.7 17.1 71 3.4 SSW 28 35 15 19 1017.0 1016.8 0.0
29/04:30pm 23.0 20.4 16.8 68 3.8 SSW 26 32 14 17 1017.2 1017.0 0.0
29/04:00pm 23.5 20.5 16.8 66 4.1 SW 28 32 15 17 1017.2 1017.0 0.0
29/03:30pm 23.9 21.1 16.4 63 4.6 SSW 26 32 14 17 1017.0 1016.8 0.0
29/03:00pm 24.3 21.2 15.5 58 5.3 SSW 26 30 14 16 1017.1 1016.9 0.0
29/02:30pm 24.6 22.5 16.1 59 5.2 SSW 22 28 12 15 1017.5 1017.3 0.0
29/02:00pm 23.9 21.0 15.1 58 5.3 SSW 24 28 13 15 1017.8 1017.6 0.0
29/01:30pm 24.2 21.9 14.6 55 5.7 SSW 20 26 11 14 1018.2 1018.0 0.0
29/01:00pm 24.1 22.1 13.9 53 6.0 SSW 17 24 9 13 1018.5 1018.3 0.0
29/12:30pm 23.6 22.0 14.0 55 5.6 S 15 17 8 9 1018.9 1018.7 0.0
29/12:00pm 23.5 21.9 13.9 55 5.6 S 15 17 8 9 1019.3 1019.1 0.0
29/11:30am 22.5 20.8 13.6 57 5.2 S 15 19 8 10 1019.6 1019.4 0.0
29/11:00am 22.3 20.4 13.1 56 5.3 SSE 15 19 8 10 1020.0 1019.8 0.0
29/10:30am 22.1 21.5 13.5 58 5.0 SE 9 15 5 8 1020.3 1020.1 0.0
29/10:00am 21.7 20.3 13.3 59 4.8 SSE 13 17 7 9 1020.5 1020.3 0.0
29/09:30am 22.4 21.8 12.4 53 5.7 ENE 7 13 4 7 1020.6 1020.4 0.0
29/09:00am 21.3 19.9 12.2 56 5.1 E 11 17 6 9 1020.5 1020.3 0.0
29/08:30am 20.8 20.0 12.8 60 4.5 E 9 15 5 8 1020.5 1020.3 0.0
29/08:00am 20.1 19.0 13.1 64 4.0 E 11 13 6 7 1020.4 1020.2 0.0
29/07:30am 19.0 18.0 13.4 70 3.2 NE 11 13 6 7 1020.3 1020.1 0.0
29/07:00am 18.2 17.5 13.1 72 2.9 ENE 9 11 5 6 1020.0 1019.8 0.0
29/06:30am 17.6 16.4 12.7 73 2.7 E 11 13 6 7 1019.7 1019.5 0.0
29/06:00am 17.4 15.8 12.7 74 2.6 ESE 13 15 7 8 1019.5 1019.3 0.0
29/05:30am 17.6 16.2 13.5 77 2.3 SE 13 17 7 9 1019.3 1019.1 0.0
29/05:00am 17.8 16.1 13.7 77 2.3 SE 15 19 8 10 1019.2 1019.0 0.0
29/04:30am 18.3 16.2 14.8 80 2.0 SE 19 24 10 13 1018.9 1018.7 0.0
29/04:00am 18.4 16.3 13.7 74 2.7 SE 17 20 9 11 1019.1 1018.9 0.0
29/03:30am 19.4 16.6 14.2 72 3.0 SE 22 28 12 15 1019.2 1019.0 0.0
29/03:00am 19.3 17.2 14.6 74 2.7 SSE 19 26 10 14 1019.4 1019.2 0.0
29/02:30am 19.4 17.0 15.5 78 2.3 SSE 22 26 12 14 1019.3 1019.1 0.0
29/02:00am 19.3 17.6 16.2 82 1.9 SSE 20 26 11 14 1019.5 1019.3 0.0
29/01:30am 19.5 18.1 16.9 85 1.6 SSE 20 26 11 14 1019.5 1019.3 0.0
29/01:00am 20.0 17.7 16.6 81 2.0 SSE 24 30 13 16 1019.6 1019.4 0.0
29/12:30am 20.2 17.6 16.0 77 2.5 SSE 24 30 13 16 1019.7 1019.5 0.0
29/12:00am 20.2 17.5 16.6 80 2.2 SSE 26 32 14 17 1019.7 1019.5 0.0
 
Date/Time
WST
Tmp

°C
App
Tmp
°C
Dew
Point
°C
Rel
Hum
%
Delta-T

°C
Wind Press
QNH
hPa
Press
MSL
hPa
Rain
since
9 am
mm
Dir
 
Spd
km/h
Gust
km/h
Spd
kts
Gust
kts
28/11:30pm 20.1 17.3 17.3 84 1.7 SSE 28 35 15 19 1019.8 1019.6 0.0
28/11:00pm 20.1 16.8 16.9 82 1.9 SSE 30 35 16 19 1019.8 1019.6 0.0
28/10:30pm 20.2 16.4 16.6 80 2.2 SSE 32 39 17 21 1019.8 1019.6 0.0
28/10:00pm 20.2 17.1 16.6 80 2.2 SSE 28 35 15 19 1020.1 1019.9 0.0
28/09:30pm 20.3 16.9 15.9 76 2.6 S 28 37 15 20 1020.2 1020.0 0.0
28/09:00pm 20.4 16.4 16.2 77 2.5 S 32 37 17 20 1020.1 1019.9 0.0
28/08:30pm 20.3 16.0 15.3 73 3.0 S 32 37 17 20 1020.0 1019.8 0.0
28/08:00pm 20.3 15.7 14.7 70 3.3 S 32 39 17 21 1019.8 1019.6 0.0
28/07:30pm 20.3 15.1 14.4 69 3.4 S 35 43 19 23 1019.5 1019.3 0.0
28/07:00pm 20.2 15.2 15.0 72 3.1 S 35 41 19 22 1019.2 1019.0 0.0
28/06:30pm 20.1 15.0 14.9 72 3.1 S 35 43 19 23 1019.0 1018.8 0.0
28/06:00pm 20.3 15.4 14.4 69 3.4 SSW 33 44 18 24 1019.0 1018.8 0.0
28/05:30pm 20.7 15.7 14.1 66 3.8 SSW 33 44 18 24 1018.9 1018.7 0.0
28/05:00pm 21.0 15.0 13.2 61 4.5 SSW 37 44 20 24 1018.9 1018.7 0.0
28/04:30pm 21.3 16.2 13.7 62 4.4 SSW 33 43 18 23 1018.8 1018.6 0.0
28/04:00pm 21.3 16.1 13.5 61 4.5 SSW 33 43 18 23 1018.9 1018.7 0.0
28/03:30pm 21.3 15.3 13.2 60 4.6 SSW 37 43 20 23 1019.1 1018.9 0.0
28/03:00pm 22.0 16.6 12.8 56 5.2 SSW 33 41 18 22 1019.2 1019.0 0.0
28/02:30pm 22.0 16.8 13.4 58 5.0 SSW 33 39 18 21 1019.4 1019.2 0.0
28/02:00pm 21.8 16.6 13.4 59 4.8 SSW 33 41 18 22 1019.5 1019.3 0.0
28/01:30pm 21.9 16.1 12.7 56 5.2 SSW 35 41 19 22 1019.7 1019.5 0.0
28/01:00pm 22.2 16.9 13.0 56 5.3 S 33 43 18 23 1019.8 1019.6 0.0
28/12:30pm 22.0 17.1 13.6 59 4.9 S 32 39 17 21 1020.2 1020.0 0.0
28/12:00pm 21.4 16.5 13.6 61 4.5 S 32 37 17 20 1020.5 1020.3 0.0
28/11:30am 21.7 17.3 14.1 62 4.4 S 30 35 16 19 1020.9 1020.7 0.0
28/11:00am 21.2 17.1 14.8 67 3.8 S 30 35 16 19 1020.9 1020.7 0.0
28/10:30am 21.4 17.5 14.3 64 4.2 S 28 33 15 18 1021.1 1020.9 0.0

Latest Capital City Observations: Canberra | Sydney | Melbourne | Brisbane | Adelaide | Perth | Hobart | Darwin

Other Formats:

Comma delimited format used in spreadsheet applications
http://www.bom.gov.au/fwo/IDW60901/IDW60901.94602.axf

JavaScript Object Notation format (JSON) in row-major order
http://www.bom.gov.au/fwo/IDW60901/IDW60901.94602.json